createdAt,value
2019-05-25T00:01:37.972Z,100522.00
2019-05-25T00:04:09.813Z,100520.30
2019-05-25T00:06:41.562Z,100512.16
2019-05-25T00:09:13.306Z,100507.75
2019-05-25T00:11:46.820Z,100506.16
2019-05-25T00:14:19.240Z,100504.41
2019-05-25T00:16:51.086Z,100505.86
2019-05-25T00:19:22.827Z,100498.94
2019-05-25T00:21:54.570Z,100501.73
2019-05-25T00:24:26.307Z,100507.31
2019-05-25T00:26:58.049Z,100509.27
2019-05-25T00:29:29.794Z,100507.97
2019-05-25T00:32:01.608Z,100506.05
2019-05-25T00:34:33.318Z,100510.70
2019-05-25T00:37:05.434Z,100506.33
2019-05-25T00:39:37.143Z,100513.98
2019-05-25T00:42:08.883Z,100503.66
2019-05-25T00:44:40.731Z,100497.47
2019-05-25T00:47:12.474Z,100504.34
2019-05-25T00:49:44.213Z,100499.80
2019-05-25T00:52:15.953Z,100491.37
2019-05-25T00:54:49.332Z,100492.22
2019-05-25T00:57:20.977Z,100495.61
2019-05-25T00:59:52.950Z,100491.54
2019-05-25T01:02:24.792Z,100490.80
2019-05-25T01:04:56.643Z,100489.70
2019-05-25T01:07:28.387Z,100494.08
2019-05-25T01:10:00.134Z,100493.47
2019-05-25T01:12:31.863Z,100490.92
2019-05-25T01:15:06.610Z,100487.89
2019-05-25T01:17:39.875Z,100491.17
2019-05-25T01:20:14.357Z,100485.47
2019-05-25T01:22:47.607Z,100488.50
2019-05-25T01:25:19.519Z,100484.00
2019-05-25T01:27:52.247Z,100489.41
2019-05-25T01:30:24.323Z,100488.66
2019-05-25T01:32:55.869Z,100481.77
2019-05-25T01:35:28.846Z,100487.10
2019-05-25T01:38:02.094Z,100486.97
2019-05-25T01:40:34.136Z,100479.56
2019-05-25T01:43:07.124Z,100474.59
2019-05-25T01:45:38.866Z,100476.89
2019-05-25T01:48:11.853Z,100472.97
2019-05-25T01:50:43.589Z,100466.79
2019-05-25T01:53:16.570Z,100465.09
2019-05-25T01:55:49.545Z,100472.13
2019-05-25T01:58:21.394Z,100470.80
2019-05-25T02:00:53.133Z,100477.33
2019-05-25T02:03:25.059Z,100469.75
2019-05-25T02:05:56.909Z,100473.36
2019-05-25T02:08:28.668Z,100475.58
2019-05-25T02:11:00.401Z,100469.05
2019-05-25T02:13:32.248Z,100473.19
2019-05-25T02:16:04.105Z,100465.78
2019-05-25T02:18:36.018Z,100466.41
2019-05-25T02:21:07.811Z,100468.37
2019-05-25T02:23:39.586Z,100466.73
2019-05-25T02:26:11.330Z,100467.69
2019-05-25T02:28:43.365Z,100464.20
2019-05-25T02:31:15.111Z,100463.72
2019-05-25T02:33:46.856Z,100478.27
2019-05-25T02:36:20.842Z,100464.94
2019-05-25T02:38:53.737Z,100466.55
2019-05-25T02:41:26.155Z,100464.73
2019-05-25T02:43:57.896Z,100462.33
2019-05-25T02:46:30.016Z,100463.77
2019-05-25T02:49:01.758Z,100460.77
2019-05-25T02:51:33.507Z,100460.42
2019-05-25T02:54:05.504Z,100463.00
2019-05-25T02:56:38.217Z,100464.95
2019-05-25T02:59:09.951Z,100464.36
2019-05-25T03:01:41.805Z,100462.59
2019-05-25T03:04:15.007Z,100463.58
2019-05-25T03:06:47.119Z,100464.73
2019-05-25T03:09:21.535Z,100469.27
2019-05-25T03:11:54.009Z,100471.72
2019-05-25T03:14:25.747Z,100468.25
2019-05-25T03:16:58.457Z,100471.45
2019-05-25T03:19:30.190Z,100468.10
2019-05-25T03:22:01.933Z,100467.90
2019-05-25T03:24:33.781Z,100472.19
2019-05-25T03:27:06.386Z,100474.28
2019-05-25T03:29:38.121Z,100478.31
2019-05-25T03:32:10.012Z,100474.22
2019-05-25T03:34:41.999Z,100474.06
2019-05-25T03:37:13.713Z,100472.76
2019-05-25T03:39:45.556Z,100472.51
2019-05-25T03:42:17.350Z,100471.67
2019-05-25T03:44:49.665Z,100475.70
2019-05-25T03:47:21.409Z,100482.40
2019-05-25T03:49:53.605Z,100485.80
2019-05-25T03:52:25.608Z,100487.14
2019-05-25T03:54:57.250Z,100492.95
2019-05-25T03:57:29.086Z,100495.14
2019-05-25T04:00:00.829Z,100492.52
2019-05-25T04:02:32.562Z,100496.69
2019-05-25T04:05:05.734Z,100506.16
2019-05-25T04:07:37.368Z,100501.93
2019-05-25T04:10:09.782Z,100493.09
2019-05-25T04:12:41.429Z,100494.25
2019-05-25T04:15:13.340Z,100498.80
2019-05-25T04:17:46.900Z,100504.14
2019-05-25T04:20:18.613Z,100510.17
2019-05-25T04:22:50.647Z,100509.68
2019-05-25T04:25:23.665Z,100506.29
2019-05-25T04:27:55.396Z,100501.27
2019-05-25T04:30:27.222Z,100512.25
2019-05-25T04:32:58.842Z,100507.61
2019-05-25T04:35:30.686Z,100511.63
2019-05-25T04:38:02.737Z,100517.68
2019-05-25T04:40:34.500Z,100521.86
2019-05-25T04:43:06.840Z,100528.19
2019-05-25T04:45:38.584Z,100537.08
2019-05-25T04:48:10.326Z,100532.48
2019-05-25T04:50:43.029Z,100538.75
2019-05-25T04:53:14.834Z,100536.41
2019-05-25T04:55:46.877Z,100535.49
2019-05-25T04:58:18.626Z,100538.66
2019-05-25T05:00:50.360Z,100543.17
2019-05-25T05:03:22.114Z,100554.84
2019-05-25T05:05:53.936Z,100550.48
2019-05-25T05:08:25.690Z,100552.72
2019-05-25T05:10:57.428Z,100558.92
2019-05-25T05:13:29.466Z,100557.20
2019-05-25T05:16:01.313Z,100557.33
2019-05-25T05:18:33.065Z,100564.80
2019-05-25T05:21:04.822Z,100570.88
2019-05-25T05:23:36.565Z,100574.61
2019-05-25T05:26:08.635Z,100573.69
2019-05-25T05:28:40.380Z,100584.62
2019-05-25T05:31:23.277Z,100581.61
2019-05-25T05:33:45.687Z,100574.20
2019-05-25T05:36:19.260Z,100574.33
2019-05-25T05:38:52.241Z,100580.57
2019-05-25T05:41:25.208Z,100576.98
2019-05-25T05:44:00.633Z,100581.82
2019-05-25T05:46:35.430Z,100572.84
2019-05-25T05:49:10.481Z,100583.11
2019-05-25T05:51:44.104Z,100582.06
2019-05-25T05:54:17.872Z,100593.33
2019-05-25T05:56:50.259Z,100588.73
2019-05-25T05:59:21.895Z,100591.16
2019-05-25T06:01:53.830Z,100587.66
2019-05-25T06:04:25.566Z,100592.16
2019-05-25T06:06:57.292Z,100592.83
2019-05-25T06:09:29.160Z,100598.66
2019-05-25T06:12:00.784Z,100604.48
2019-05-25T06:14:32.632Z,100593.53
2019-05-25T06:17:04.547Z,100603.67
2019-05-25T06:19:40.742Z,100611.72
2019-05-25T06:22:15.686Z,100609.61
2019-05-25T06:24:47.329Z,100612.63
2019-05-25T06:27:27.338Z,100618.29
2019-05-25T06:29:52.650Z,100614.91
2019-05-25T06:32:24.390Z,100610.76
2019-05-25T06:34:56.211Z,100610.01
2019-05-25T06:37:28.361Z,100618.84
2019-05-25T06:40:02.614Z,100618.58
2019-05-25T06:42:39.438Z,100629.91
2019-05-25T06:45:13.488Z,100629.80
2019-05-25T06:47:45.619Z,100632.72
2019-05-25T06:50:20.790Z,100625.27
2019-05-25T06:52:52.639Z,100635.06
2019-05-25T06:55:24.366Z,100632.63
2019-05-25T06:57:56.095Z,100638.88
2019-05-25T07:00:28.003Z,100639.37
2019-05-25T07:03:00.103Z,100643.70
2019-05-25T07:05:32.925Z,100654.08
2019-05-25T07:08:05.031Z,100647.07
2019-05-25T07:10:36.768Z,100641.78
2019-05-25T07:13:08.502Z,100649.48
2019-05-25T07:15:40.230Z,100648.91
2019-05-25T07:18:12.060Z,100654.16
2019-05-25T07:20:43.785Z,100660.48
2019-05-25T07:23:15.514Z,100662.72
2019-05-25T07:25:47.347Z,100661.64
2019-05-25T07:28:19.078Z,100665.88
2019-05-25T07:30:50.821Z,100665.88
2019-05-25T07:33:22.562Z,100664.88
2019-05-25T07:35:54.296Z,100673.71
2019-05-25T07:38:26.259Z,100679.64
2019-05-25T07:40:57.891Z,100679.64
2019-05-25T07:43:29.640Z,100694.85
2019-05-25T07:46:01.370Z,100682.16
2019-05-25T07:48:33.173Z,100675.77
2019-05-25T07:51:04.932Z,100689.17
2019-05-25T07:53:37.528Z,100682.04
2019-05-25T07:56:09.370Z,100704.55
2019-05-25T07:58:41.062Z,100690.32
2019-05-25T08:01:13.168Z,100690.32
2019-05-25T08:03:47.079Z,100714.83
2019-05-25T08:06:18.803Z,100712.22
2019-05-25T08:08:51.786Z,100712.35
2019-05-25T08:11:23.538Z,100709.50
2019-05-25T08:13:55.368Z,100713.22
2019-05-25T08:16:27.114Z,100722.40
2019-05-25T08:18:58.847Z,100722.59
2019-05-25T08:21:30.609Z,100713.33
2019-05-25T08:24:02.338Z,100716.48
2019-05-25T08:26:34.082Z,100723.11
2019-05-25T08:29:05.923Z,100724.98
2019-05-25T08:31:37.677Z,100717.58
2019-05-25T08:34:09.428Z,100723.16
2019-05-25T08:36:44.919Z,100713.71
2019-05-25T08:39:16.847Z,100716.33
2019-05-25T08:41:51.016Z,100719.53
2019-05-25T08:44:22.843Z,100713.45
2019-05-25T08:46:55.744Z,100713.94
2019-05-25T08:49:27.668Z,100725.50
2019-05-25T08:51:59.738Z,100716.69
2019-05-25T08:54:31.480Z,100726.88
2019-05-25T08:57:04.896Z,100733.53
2019-05-25T08:59:36.530Z,100724.09
2019-05-25T09:02:08.269Z,100731.99
2019-05-25T09:04:40.016Z,100729.73
2019-05-25T09:07:11.749Z,100726.83
2019-05-25T09:09:43.624Z,100735.45
2019-05-25T09:12:15.389Z,100739.55
2019-05-25T09:14:48.812Z,100729.36
2019-05-25T09:17:20.678Z,100732.78
2019-05-25T09:19:52.428Z,100737.20
2019-05-25T09:22:24.176Z,100734.61
2019-05-25T09:24:55.915Z,100727.58
2019-05-25T09:27:27.698Z,100733.58
2019-05-25T09:30:01.127Z,100735.80
2019-05-25T09:32:32.783Z,100733.08
2019-05-25T09:35:07.167Z,100733.05
2019-05-25T09:37:39.013Z,100741.75
2019-05-25T09:40:11.561Z,100742.97
2019-05-25T09:42:44.628Z,100745.14
2019-05-25T09:45:16.872Z,100737.75
2019-05-25T09:47:48.508Z,100745.37
2019-05-25T09:50:20.308Z,100743.22
2019-05-25T09:52:52.036Z,100749.09
2019-05-25T09:55:23.767Z,100752.42
2019-05-25T09:57:55.494Z,100748.72
2019-05-25T10:00:27.776Z,100745.02
2019-05-25T10:02:59.416Z,100746.63
2019-05-25T10:05:31.164Z,100737.26
2019-05-25T10:08:04.185Z,100746.95
2019-05-25T10:10:36.074Z,100745.08
2019-05-25T10:13:07.898Z,100739.52
2019-05-25T10:15:40.938Z,100738.77
2019-05-25T10:18:12.673Z,100746.24
2019-05-25T10:20:45.534Z,100735.15
2019-05-25T10:23:17.259Z,100737.16
2019-05-25T10:25:48.885Z,100734.63
2019-05-25T10:28:20.916Z,100734.92
2019-05-25T10:30:52.792Z,100727.69
2019-05-25T10:33:25.998Z,100719.63
2019-05-25T10:35:57.724Z,100725.75
2019-05-25T10:38:29.558Z,100722.86
2019-05-25T10:41:01.285Z,100723.58
2019-05-25T10:43:36.945Z,100721.38
2019-05-25T10:46:08.780Z,100722.53
2019-05-25T10:48:40.538Z,100720.65
2019-05-25T10:51:12.342Z,100715.94
2019-05-25T10:53:44.415Z,100723.35
2019-05-25T10:56:16.144Z,100719.45
2019-05-25T10:58:48.086Z,100714.23
2019-05-25T11:01:19.621Z,100724.23
2019-05-25T11:03:52.954Z,100715.54
2019-05-25T11:06:24.697Z,100717.62
2019-05-25T11:08:56.238Z,100723.16
2019-05-25T11:11:27.861Z,100726.78
2019-05-25T11:13:59.391Z,100715.68
2019-05-25T11:16:32.393Z,100718.86
2019-05-25T11:19:04.123Z,100714.66
2019-05-25T11:21:35.850Z,100719.33
2019-05-25T11:24:07.585Z,100720.44
2019-05-25T11:26:40.803Z,100725.64
2019-05-25T11:29:13.877Z,100716.28
2019-05-25T11:31:54.631Z,100714.69
2019-05-25T11:34:18.643Z,100717.64
2019-05-25T11:36:50.382Z,100713.66
2019-05-25T11:39:22.511Z,100712.87
2019-05-25T11:41:54.034Z,100719.34
2019-05-25T11:44:26.966Z,100712.19
2019-05-25T11:46:59.618Z,100703.36
2019-05-25T11:49:31.364Z,100709.17
2019-05-25T11:52:03.099Z,100702.84
2019-05-25T11:54:34.829Z,100716.02
2019-05-25T11:57:07.430Z,100715.52
2019-05-25T11:59:39.359Z,100700.74
2019-05-25T12:02:11.087Z,100703.97
2019-05-25T12:04:43.631Z,100703.35
2019-05-25T12:07:15.466Z,100705.47
2019-05-25T12:09:47.290Z,100703.09
2019-05-25T12:12:19.025Z,100717.34
2019-05-25T12:14:50.767Z,100716.05
2019-05-25T12:17:22.633Z,100711.91
2019-05-25T12:19:54.273Z,100708.03
2019-05-25T12:22:26.131Z,100716.73
2019-05-25T12:24:57.650Z,100707.68
2019-05-25T12:27:29.278Z,100708.58
2019-05-25T12:30:02.695Z,100712.36
2019-05-25T12:32:34.605Z,100715.86
2019-05-25T12:35:08.420Z,100711.06
2019-05-25T12:37:40.247Z,100722.69
2019-05-25T12:40:12.645Z,100710.88
2019-05-25T12:42:45.902Z,100711.19
2019-05-25T12:45:18.380Z,100709.23
2019-05-25T12:47:49.943Z,100708.39
2019-05-25T12:50:22.609Z,100708.55
2019-05-25T12:52:54.150Z,100709.63
2019-05-25T12:55:26.033Z,100707.94
2019-05-25T12:57:57.751Z,100706.70
2019-05-25T13:00:29.488Z,100707.19
2019-05-25T13:03:01.249Z,100704.23
2019-05-25T13:05:34.738Z,100710.97
2019-05-25T13:08:08.157Z,100710.34
2019-05-25T13:10:39.903Z,100700.27
2019-05-25T13:13:11.664Z,100703.16
2019-05-25T13:15:43.433Z,100701.20
2019-05-25T13:18:15.161Z,100700.36
2019-05-25T13:20:47.032Z,100694.47
2019-05-25T13:23:18.787Z,100696.21
2019-05-25T13:25:50.529Z,100699.26
2019-05-25T13:28:22.257Z,100694.59
2019-05-25T13:30:53.998Z,100695.30
2019-05-25T13:33:26.867Z,100699.16
2019-05-25T13:35:58.715Z,100692.93
2019-05-25T13:38:30.447Z,100701.14
2019-05-25T13:41:02.302Z,100701.39
2019-05-25T13:43:34.048Z,100703.36
2019-05-25T13:46:06.666Z,100702.52
2019-05-25T13:48:38.410Z,100703.66
2019-05-25T13:51:10.284Z,100699.52
2019-05-25T13:53:41.908Z,100703.98
2019-05-25T13:56:13.760Z,100702.11
2019-05-25T13:58:45.480Z,100701.92
2019-05-25T14:01:27.919Z,100706.70
2019-05-25T14:03:50.571Z,100700.50
2019-05-25T14:06:22.329Z,100696.23
2019-05-25T14:08:54.071Z,100698.86
2019-05-25T14:11:25.805Z,100695.91
2019-05-25T14:13:57.543Z,100694.68
2019-05-25T14:16:29.292Z,100692.92
2019-05-25T14:19:01.121Z,100688.65
2019-05-25T14:21:34.513Z,100700.40
2019-05-25T14:24:06.537Z,100696.40
2019-05-25T14:26:38.478Z,100688.09
2019-05-25T14:29:10.303Z,100697.45
2019-05-25T14:31:45.852Z,100698.20
2019-05-25T14:34:15.591Z,100693.70
2019-05-25T14:36:47.449Z,100689.95
2019-05-25T14:39:20.498Z,100693.24
2019-05-25T14:41:54.060Z,100696.78
2019-05-25T14:44:25.687Z,100687.52
2019-05-25T14:46:58.397Z,100689.59
2019-05-25T14:49:30.138Z,100687.47
2019-05-25T14:52:02.014Z,100685.88
2019-05-25T14:54:33.683Z,100683.12
2019-05-25T14:57:05.909Z,100683.06
2019-05-25T14:59:37.765Z,100682.15
2019-05-25T15:02:10.471Z,100683.71
2019-05-25T15:04:42.308Z,100678.86
2019-05-25T15:07:14.089Z,100680.02
2019-05-25T15:09:45.782Z,100685.23
2019-05-25T15:12:17.595Z,100694.28
2019-05-25T15:14:49.612Z,100688.72
2019-05-25T15:17:21.348Z,100684.63
2019-05-25T15:19:53.239Z,100693.12
2019-05-25T15:22:25.987Z,100696.50
2019-05-25T15:24:57.845Z,100688.52
2019-05-25T15:27:31.075Z,100693.12
2019-05-25T15:30:03.211Z,100697.21
2019-05-25T15:32:34.937Z,100692.13
2019-05-25T15:35:08.134Z,100691.47
2019-05-25T15:37:39.758Z,100706.00
2019-05-25T15:40:13.062Z,100699.13
2019-05-25T15:42:45.102Z,100695.03
2019-05-25T15:45:20.695Z,100699.09
2019-05-25T15:47:53.681Z,100698.67
2019-05-25T15:50:25.938Z,100702.73
2019-05-25T15:52:57.481Z,100697.17
2019-05-25T15:55:29.905Z,100699.54
2019-05-25T15:58:01.778Z,100696.16
2019-05-25T16:00:51.830Z,100694.41
2019-05-25T16:03:23.826Z,100693.45
2019-05-25T16:05:55.868Z,100697.52
2019-05-25T16:08:27.566Z,100701.19
2019-05-25T16:10:59.364Z,100704.20
2019-05-25T16:13:31.118Z,100705.89
2019-05-25T16:16:02.896Z,100717.25
2019-05-25T16:18:34.628Z,100718.64
2019-05-25T16:21:06.492Z,100712.91
2019-05-25T16:23:38.126Z,100719.84
2019-05-25T16:26:09.888Z,100725.76
2019-05-25T16:28:41.625Z,100722.17
2019-05-25T16:31:13.370Z,100723.20
2019-05-25T16:33:45.128Z,100723.88
2019-05-25T16:36:16.897Z,100730.34
2019-05-25T16:38:48.689Z,100728.44
2019-05-25T16:41:20.415Z,100739.80
2019-05-25T16:43:52.190Z,100740.33
2019-05-25T16:46:24.003Z,100743.45
2019-05-25T16:48:56.631Z,100750.85
2019-05-25T16:51:28.429Z,100744.48
2019-05-25T16:54:00.200Z,100743.41
2019-05-25T16:56:32.091Z,100748.19
2019-05-25T16:59:03.987Z,100748.96
2019-05-25T17:01:47.553Z,100749.05
2019-05-25T17:04:09.326Z,100739.61
2019-05-25T17:06:41.095Z,100750.38
2019-05-25T17:09:12.897Z,100747.20
2019-05-25T17:11:44.652Z,100742.69
2019-05-25T17:14:16.576Z,100749.59
2019-05-25T17:16:48.501Z,100752.29
2019-05-25T17:19:20.527Z,100754.89
2019-05-25T17:21:52.686Z,100755.48
2019-05-25T17:24:24.513Z,100752.23
2019-05-25T17:26:56.378Z,100759.69
2019-05-25T17:29:29.156Z,100757.25
2019-05-25T17:32:00.810Z,100757.25
2019-05-25T17:34:32.759Z,100748.08
2019-05-25T17:37:05.120Z,100753.84
2019-05-25T17:39:37.108Z,100748.11
2019-05-25T17:42:10.677Z,100753.50
2019-05-25T17:44:42.492Z,100748.41
2019-05-25T17:47:14.180Z,100752.00
2019-05-25T17:49:46.826Z,100749.56
2019-05-25T17:52:22.582Z,100749.22
2019-05-25T17:54:53.721Z,100740.55
2019-05-25T17:57:25.555Z,100749.63
2019-05-25T17:59:59.461Z,100741.47
2019-05-25T18:02:30.566Z,100745.94
2019-05-25T18:05:02.359Z,100745.73
2019-05-25T18:07:35.141Z,100752.28
2019-05-25T18:10:08.803Z,100747.19
2019-05-25T18:12:40.431Z,100737.26
2019-05-25T18:15:14.878Z,100748.38
2019-05-25T18:18:11.399Z,100739.05
2019-05-25T18:20:44.038Z,100747.17
2019-05-25T18:23:20.877Z,100747.22
2019-05-25T18:25:58.034Z,100746.45
2019-05-25T18:28:30.562Z,100737.91
2019-05-25T18:31:02.309Z,100746.17
2019-05-25T18:33:34.036Z,100748.69
2019-05-25T18:36:05.827Z,100746.46
2019-05-25T18:38:39.823Z,100753.05
2019-05-25T18:41:13.538Z,100749.49
2019-05-25T18:43:47.329Z,100744.20
2019-05-25T18:46:21.179Z,100743.20
2019-05-25T18:48:54.185Z,100754.14
2019-05-25T18:51:25.860Z,100759.67
2019-05-25T18:53:57.645Z,100769.00
2019-05-25T18:56:29.406Z,100762.84
2019-05-25T18:59:10.500Z,100761.20
2019-05-25T19:01:44.820Z,100775.26
2019-05-25T19:04:19.925Z,100779.70
2019-05-25T19:06:55.019Z,100777.05
2019-05-25T19:09:28.253Z,100781.09
2019-05-25T19:11:59.950Z,100787.11
2019-05-25T19:14:34.648Z,100789.21
2019-05-25T19:17:19.362Z,100780.80
2019-05-25T19:19:49.732Z,100781.95
2019-05-25T19:22:26.480Z,100783.84
2019-05-25T19:24:59.506Z,100786.55
2019-05-25T19:27:36.970Z,100791.32
2019-05-25T19:30:18.433Z,100791.22
2019-05-25T19:32:50.771Z,100789.73
2019-05-25T19:35:22.639Z,100795.74
2019-05-25T19:37:55.463Z,100794.88
2019-05-25T19:40:27.444Z,100801.61
2019-05-25T19:42:59.551Z,100796.72
2019-05-25T19:45:35.331Z,100800.02
2019-05-25T19:48:07.423Z,100797.34
2019-05-25T19:50:39.268Z,100798.80
2019-05-25T19:53:17.189Z,100805.12
2019-05-25T19:55:49.205Z,100803.30
2019-05-25T19:58:25.256Z,100804.50
2019-05-25T20:01:01.004Z,100802.56
2019-05-25T20:03:35.468Z,100808.38
2019-05-25T20:06:09.492Z,100802.54
2019-05-25T20:08:44.561Z,100811.43
2019-05-25T20:11:18.017Z,100813.34
2019-05-25T20:13:49.858Z,100818.30
2019-05-25T20:16:24.848Z,100813.56
2019-05-25T20:18:57.606Z,100819.25
2019-05-25T20:21:31.581Z,100817.66
2019-05-25T20:24:06.818Z,100818.97
2019-05-25T20:26:40.251Z,100825.41
2019-05-25T20:29:15.316Z,100825.29
2019-05-25T20:31:47.070Z,100824.77
2019-05-25T20:34:20.551Z,100827.68
2019-05-25T20:36:52.811Z,100826.42
2019-05-25T20:39:29.014Z,100831.04
2019-05-25T20:42:00.600Z,100831.88
2019-05-25T20:44:36.012Z,100831.34
2019-05-25T20:47:07.790Z,100834.98
2019-05-25T20:49:41.591Z,100829.81
2019-05-25T20:52:25.869Z,100834.87
2019-05-25T20:54:59.821Z,100838.80
2019-05-25T20:57:35.348Z,100844.62
2019-05-25T21:00:07.802Z,100854.37
2019-05-25T21:03:04.743Z,100851.05
2019-05-25T21:05:25.170Z,100846.30
2019-05-25T21:07:59.814Z,100848.45
2019-05-25T21:10:35.772Z,100848.31
2019-05-25T21:13:10.685Z,100855.41
2019-05-25T21:15:52.194Z,100854.67
2019-05-25T21:18:34.225Z,100852.31
2019-05-25T21:21:06.020Z,100853.61
2019-05-25T21:23:42.601Z,100855.54
2019-05-25T21:26:18.957Z,100860.34
2019-05-25T21:28:50.766Z,100860.27
2019-05-25T21:31:27.369Z,100863.27
2019-05-25T21:34:04.683Z,100865.86
2019-05-25T21:36:48.337Z,100865.97
2019-05-25T21:39:26.556Z,100871.91
2019-05-25T21:42:00.599Z,100870.31
2019-05-25T21:44:36.980Z,100870.98
2019-05-25T21:47:08.545Z,100870.83
2019-05-25T21:49:41.525Z,100870.83
2019-05-25T21:52:14.888Z,100867.41
2019-05-25T21:54:46.721Z,100873.83
2019-05-25T21:57:19.027Z,100871.45
2019-05-25T21:59:50.696Z,100872.62
2019-05-25T22:02:22.445Z,100873.70
2019-05-25T22:04:54.194Z,100868.87
2019-05-25T22:07:26.627Z,100878.59
2019-05-25T22:09:58.296Z,100880.51
2019-05-25T22:12:30.083Z,100879.56
2019-05-25T22:15:01.838Z,100874.28
2019-05-25T22:17:34.166Z,100871.42
2019-05-25T22:20:11.088Z,100875.48
2019-05-25T22:22:43.484Z,100877.40
2019-05-25T22:25:16.136Z,100875.88
2019-05-25T22:27:47.982Z,100881.42
2019-05-25T22:30:22.655Z,100876.67
2019-05-25T22:32:54.617Z,100878.22
2019-05-25T22:35:26.657Z,100878.23
2019-05-25T22:37:58.419Z,100873.27
2019-05-25T22:40:30.178Z,100875.98
2019-05-25T22:43:01.920Z,100881.22
2019-05-25T22:45:33.683Z,100874.59
2019-05-25T22:48:05.522Z,100875.25
2019-05-25T22:50:37.183Z,100867.28
2019-05-25T22:53:08.938Z,100872.45
2019-05-25T22:55:40.721Z,100870.05
2019-05-25T22:58:12.470Z,100872.34
2019-05-25T23:00:44.249Z,100874.63
2019-05-25T23:03:16.367Z,100876.27
2019-05-25T23:05:48.336Z,100871.99
2019-05-25T23:08:20.085Z,100872.23
2019-05-25T23:10:51.849Z,100872.23
2019-05-25T23:13:23.608Z,100877.93
2019-05-25T23:15:55.373Z,100871.20
2019-05-25T23:18:28.700Z,100875.51
2019-05-25T23:21:00.455Z,100861.03
2019-05-25T23:23:32.508Z,100865.39
2019-05-25T23:26:04.269Z,100865.97
2019-05-25T23:28:37.296Z,100857.80
2019-05-25T23:31:09.048Z,100862.92
2019-05-25T23:33:41.100Z,100867.49
2019-05-25T23:36:12.847Z,100860.18
2019-05-25T23:38:45.778Z,100859.91
2019-05-25T23:41:17.583Z,100859.49
2019-05-25T23:43:49.339Z,100857.03
2019-05-25T23:46:22.420Z,100856.27
2019-05-25T23:48:54.084Z,100860.06
2019-05-25T23:51:27.103Z,100856.65
2019-05-25T23:53:58.847Z,100859.31
2019-05-25T23:56:30.593Z,100857.23
2019-05-25T23:59:02.336Z,100855.52
